Capitol Logistics 366


KIAD
Washington Dulles International Airport
Dulles, Virginia, US
CYYZ
Lester B. Pearson International Airport
Toronto, , CA

Activity Log

Date Flight Route Aircraft Duration
09/23/2020 CPX366 JERES2 JERES J220 SFK WOZEE LINNG2 B763 1h 16m
03/26/2020 CPX366 JERES2 JERES J220 MICAH J61 PSB J60 MIDST OXMAN VERKO9 B763 1h 27m
03/01/2020 CPX366 JERES2 JERES J220 MICAH J61 PSB J60 MIDST OXMAN VERKO9 B763 1h 18m
11/04/2019 CPX366 JERES2 JERES J220 MICAH J61 PSB J60 MIDST OXMAN LINNG2 B763 1h 17m
06/18/2019 CPX366 JERES2 JERES J220 SFK WOZEE LINNG9 B763 1h 09m

Route Details

Aircraft Information
Primary: Boeing 767-300BDSF
Backup: Not Available
Route Data
Distance: 301nm
Sched. Duration: 1h 24m
Avg. Duration: 1h 18m (-6m)
Times Flown: 5
Recm'd Route: JERES2 JERES J220 SFK WOZEE LINNG9
Planned Altitude: 34,000ft
Origin Wx: KIAD 312152Z 15006KT 10SM BKN045 09/03 A3042 RMK AO2 SLP301 T00890028
Dest. Wx: CYYZ 312200Z 14005KT 15SM BKN038 05/M01 A3023 RMK SC7 SLP245
Notes:

Financial History
Total Freight: 312,982lbs
Average Load: 62,596lbs/flt
Fuel Used: 61,952lbs
Avg. Fuel Used: 12,390lbs/flt
Fuel Expense: $80,697
Avg. Fuel Expense: $16,139
Avg. Fuel Cost: $1.30/lbs
Total Gross Income: $426,768
Pilot Pay: $1,075
Total Expenses: $46,351
Total Revenue: $298,111
Average Revenue: $85,353.70